createdAt,value
2019-03-20T00:00:31.071Z,82.00
2019-03-20T00:02:57.184Z,82.20
2019-03-20T00:05:23.228Z,82.40
2019-03-20T00:07:49.288Z,82.60
2019-03-20T00:10:16.169Z,83.00
2019-03-20T00:12:42.244Z,83.60
2019-03-20T00:15:12.380Z,84.10
2019-03-20T00:17:38.435Z,84.00
2019-03-20T00:20:07.800Z,85.10
2019-03-20T00:22:33.880Z,84.50
2019-03-20T00:24:59.963Z,84.40
2019-03-20T00:27:26.041Z,84.30
2019-03-20T00:29:52.119Z,84.60
2019-03-20T00:32:18.260Z,84.50
2019-03-20T00:34:44.318Z,84.70
2019-03-20T00:37:10.395Z,84.60
2019-03-20T00:39:36.455Z,84.80
2019-03-20T00:42:02.503Z,84.80
2019-03-20T00:44:28.572Z,84.70
2019-03-20T00:46:54.663Z,84.80
2019-03-20T00:49:20.722Z,84.80
2019-03-20T00:51:46.783Z,85.20
2019-03-20T00:54:12.833Z,85.40
2019-03-20T00:56:38.923Z,85.40
2019-03-20T00:59:04.970Z,85.50
2019-03-20T01:01:31.028Z,85.20
2019-03-20T01:03:57.099Z,86.00
2019-03-20T01:06:23.155Z,85.60
2019-03-20T01:08:49.220Z,85.80
2019-03-20T01:11:15.295Z,86.10
2019-03-20T01:13:41.348Z,86.40
2019-03-20T01:16:07.400Z,86.60
2019-03-20T01:18:33.491Z,86.80
2019-03-20T01:20:59.538Z,86.80
2019-03-20T01:23:25.601Z,86.80
2019-03-20T01:25:51.770Z,86.60
2019-03-20T01:28:17.834Z,86.60
2019-03-20T01:30:43.972Z,86.40
2019-03-20T01:33:11.015Z,86.60
2019-03-20T01:35:37.383Z,86.70
2019-03-20T01:38:04.135Z,86.50
2019-03-20T01:40:30.200Z,86.30
2019-03-20T01:42:56.252Z,87.10
2019-03-20T01:45:22.327Z,86.30
2019-03-20T01:47:48.431Z,86.20
2019-03-20T01:50:14.496Z,86.00
2019-03-20T01:52:40.552Z,85.90
2019-03-20T01:55:06.911Z,85.90
2019-03-20T01:57:32.987Z,85.90
2019-03-20T01:59:59.035Z,86.00
2019-03-20T02:02:25.100Z,85.90
2019-03-20T02:04:51.174Z,85.80
2019-03-20T02:07:17.223Z,85.70
2019-03-20T02:09:43.268Z,85.80
2019-03-20T02:12:09.339Z,85.80
2019-03-20T02:14:35.471Z,86.00
2019-03-20T02:17:01.524Z,86.20
2019-03-20T02:19:27.568Z,86.40
2019-03-20T02:21:53.668Z,86.70
2019-03-20T02:24:19.783Z,86.80
2019-03-20T02:26:45.867Z,87.00
2019-03-20T02:29:11.929Z,87.00
2019-03-20T02:31:38.335Z,87.20
2019-03-20T02:34:04.461Z,87.00
2019-03-20T02:36:30.648Z,86.80
2019-03-20T02:38:56.706Z,86.30
2019-03-20T02:41:22.771Z,85.80
2019-03-20T02:43:48.819Z,85.30
2019-03-20T02:46:14.927Z,84.80
2019-03-20T02:48:41.136Z,84.30
2019-03-20T02:51:07.329Z,84.00
2019-03-20T02:53:33.390Z,83.80
2019-03-20T02:55:59.443Z,83.70
2019-03-20T02:58:25.553Z,83.70
2019-03-20T03:00:51.599Z,83.50
2019-03-20T03:03:17.674Z,83.30
2019-03-20T03:05:43.850Z,83.40
2019-03-20T03:08:09.913Z,83.20
2019-03-20T03:10:35.996Z,83.80
2019-03-20T03:13:02.043Z,82.70
2019-03-20T03:15:28.097Z,83.30
2019-03-20T03:17:54.181Z,83.10
2019-03-20T03:20:20.241Z,83.10
2019-03-20T03:22:46.334Z,83.00
2019-03-20T03:25:13.493Z,82.60
2019-03-20T03:27:39.641Z,82.40
2019-03-20T03:30:09.701Z,82.10
2019-03-20T03:32:35.753Z,82.00
2019-03-20T03:35:03.168Z,82.00
2019-03-20T03:37:29.415Z,82.00
2019-03-20T03:39:55.500Z,81.70
2019-03-20T03:42:21.590Z,81.50
2019-03-20T03:44:47.651Z,81.10
2019-03-20T03:47:13.898Z,80.70
2019-03-20T03:49:40.156Z,80.70
2019-03-20T03:52:06.258Z,81.00
2019-03-20T03:54:32.412Z,80.90
2019-03-20T03:56:58.712Z,80.60
2019-03-20T03:59:24.859Z,80.50
2019-03-20T04:01:50.909Z,80.10
2019-03-20T04:04:17.000Z,79.60
2019-03-20T04:06:43.055Z,79.30
2019-03-20T04:09:09.140Z,79.20
2019-03-20T04:11:35.264Z,78.90
2019-03-20T04:14:01.324Z,78.70
2019-03-20T04:16:27.772Z,78.30
2019-03-20T04:18:53.928Z,77.70
2019-03-20T04:21:19.990Z,77.40
2019-03-20T04:23:46.047Z,77.10
2019-03-20T04:26:12.182Z,77.00
2019-03-20T04:28:38.337Z,76.70
2019-03-20T04:31:04.404Z,76.50
2019-03-20T04:33:30.456Z,76.40
2019-03-20T04:35:56.520Z,76.10
2019-03-20T04:38:22.577Z,76.00
2019-03-20T04:40:48.628Z,75.80
2019-03-20T04:43:14.684Z,75.60
2019-03-20T04:45:40.735Z,75.40
2019-03-20T04:48:06.792Z,75.10
2019-03-20T04:50:32.867Z,75.10
2019-03-20T04:52:58.936Z,75.20
2019-03-20T04:55:24.989Z,75.20
2019-03-20T04:57:51.048Z,75.30
2019-03-20T05:00:21.650Z,75.40
2019-03-20T05:02:47.780Z,75.30
2019-03-20T05:05:14.105Z,75.60
2019-03-20T05:07:40.144Z,76.60
2019-03-20T05:10:09.388Z,75.80
2019-03-20T05:12:35.471Z,76.00
2019-03-20T05:15:02.821Z,76.20
2019-03-20T05:17:28.879Z,76.40
2019-03-20T05:19:54.944Z,76.40
2019-03-20T05:22:20.993Z,76.60
2019-03-20T05:24:47.047Z,76.70
2019-03-20T05:27:13.124Z,77.10
2019-03-20T05:29:39.180Z,77.30
2019-03-20T05:32:05.231Z,77.20
2019-03-20T05:34:31.483Z,77.40
2019-03-20T05:36:57.544Z,77.30
2019-03-20T05:39:23.635Z,77.30
2019-03-20T05:41:49.688Z,77.80
2019-03-20T05:44:15.783Z,77.60
2019-03-20T05:46:41.958Z,77.70
2019-03-20T05:49:08.018Z,78.30
2019-03-20T05:51:34.080Z,78.60
2019-03-20T05:54:00.237Z,78.50
2019-03-20T05:56:26.391Z,78.70
2019-03-20T05:58:52.468Z,78.50
2019-03-20T06:01:18.627Z,78.50
2019-03-20T06:03:44.686Z,77.90
2019-03-20T06:06:10.736Z,77.70
2019-03-20T06:08:36.796Z,76.40
2019-03-20T06:11:02.844Z,76.00
2019-03-20T06:13:28.904Z,76.00
2019-03-20T06:15:54.956Z,75.60
2019-03-20T06:18:21.019Z,75.50
2019-03-20T06:20:47.080Z,75.50
2019-03-20T06:23:13.137Z,75.90
2019-03-20T06:25:39.191Z,75.20
2019-03-20T06:28:05.323Z,74.60
2019-03-20T06:30:31.398Z,74.10
2019-03-20T06:32:59.760Z,73.90
2019-03-20T06:35:25.460Z,73.70
2019-03-20T06:37:51.548Z,73.80
2019-03-20T06:40:17.737Z,73.20
2019-03-20T06:42:43.876Z,72.50
2019-03-20T06:45:11.841Z,71.70
2019-03-20T06:47:37.908Z,71.30
2019-03-20T06:50:07.792Z,71.40
2019-03-20T06:52:33.912Z,71.60
2019-03-20T06:55:01.077Z,71.50
2019-03-20T06:57:27.675Z,71.60
2019-03-20T07:00:30.991Z,71.30
2019-03-20T07:02:59.072Z,71.50
2019-03-20T07:05:41.267Z,70.90
2019-03-20T07:08:07.566Z,70.30
2019-03-20T07:10:54.347Z,69.20
2019-03-20T07:13:20.430Z,67.60
2019-03-20T07:15:46.577Z,66.20
2019-03-20T07:18:12.819Z,65.30
2019-03-20T07:20:38.924Z,63.90
2019-03-20T07:23:05.088Z,63.00
2019-03-20T07:25:31.167Z,62.00
2019-03-20T07:27:57.237Z,61.50
2019-03-20T07:30:23.295Z,60.60
2019-03-20T07:32:49.361Z,60.10
2019-03-20T07:35:15.440Z,60.50
2019-03-20T07:37:41.518Z,61.10
2019-03-20T07:40:07.975Z,61.10
2019-03-20T07:42:34.028Z,61.50
2019-03-20T07:45:00.112Z,61.60
2019-03-20T07:47:26.332Z,61.60
2019-03-20T07:49:52.493Z,61.40
2019-03-20T07:52:18.552Z,61.00
2019-03-20T07:54:44.601Z,60.90
2019-03-20T07:57:10.665Z,60.90
2019-03-20T07:59:36.746Z,60.60
2019-03-20T08:02:02.919Z,60.20
2019-03-20T08:04:29.021Z,60.00
2019-03-20T08:06:55.147Z,59.90
2019-03-20T08:09:21.217Z,59.30
2019-03-20T08:11:47.468Z,59.00
2019-03-20T08:14:13.555Z,59.20
2019-03-20T08:16:39.608Z,89.10
2019-03-20T08:19:05.670Z,94.30
2019-03-20T08:33:44.000Z,72.70
2019-03-20T08:36:10.044Z,58.90
2019-03-20T08:38:36.127Z,59.00
2019-03-20T08:41:02.300Z,59.20
2019-03-20T08:43:28.395Z,59.10
2019-03-20T08:45:54.507Z,59.60
2019-03-20T08:48:20.657Z,59.80
2019-03-20T08:50:46.715Z,60.20
2019-03-20T08:53:12.788Z,60.30
2019-03-20T08:55:38.854Z,60.70
2019-03-20T08:58:04.921Z,59.70
2019-03-20T09:00:31.067Z,59.90
2019-03-20T09:02:57.115Z,59.10
2019-03-20T09:05:23.288Z,59.30
2019-03-20T09:07:49.335Z,58.90
2019-03-20T09:10:19.282Z,58.00
2019-03-20T09:12:45.377Z,58.00
2019-03-20T09:15:14.241Z,57.60
2019-03-20T09:17:40.315Z,57.30
2019-03-20T09:20:14.626Z,57.10
2019-03-20T09:22:40.870Z,57.20
2019-03-20T09:25:09.931Z,56.90
2019-03-20T09:27:36.038Z,56.90
2019-03-20T09:30:04.880Z,57.10
2019-03-20T09:32:31.103Z,57.00
2019-03-20T09:34:57.204Z,57.40
2019-03-20T09:37:23.257Z,57.80
2019-03-20T09:39:49.328Z,57.70
2019-03-20T09:42:15.392Z,57.80
2019-03-20T09:44:41.470Z,58.40
2019-03-20T09:47:07.523Z,57.40
2019-03-20T09:49:33.571Z,57.40
2019-03-20T09:51:59.734Z,57.40
2019-03-20T09:54:25.791Z,57.50
2019-03-20T09:56:51.855Z,57.30
2019-03-20T09:59:20.350Z,57.10
2019-03-20T10:01:46.579Z,57.30
2019-03-20T10:04:12.742Z,57.40
2019-03-20T10:06:41.564Z,57.40
2019-03-20T10:09:16.270Z,57.30
2019-03-20T10:11:42.377Z,57.30
2019-03-20T10:14:08.738Z,58.40
2019-03-20T10:16:42.284Z,57.50
2019-03-20T10:19:09.880Z,57.90
2019-03-20T10:21:42.726Z,57.60
2019-03-20T10:24:12.329Z,57.90
2019-03-20T10:26:38.491Z,57.90
2019-03-20T10:29:06.589Z,58.20
2019-03-20T10:31:35.756Z,58.50
2019-03-20T10:34:01.963Z,57.60
2019-03-20T10:36:28.027Z,57.30
2019-03-20T10:39:05.709Z,56.80
2019-03-20T10:41:22.638Z,57.00
2019-03-20T10:43:48.716Z,56.40
2019-03-20T10:46:14.783Z,56.60
2019-03-20T10:48:40.893Z,57.10
2019-03-20T10:51:06.956Z,57.40
2019-03-20T10:53:33.207Z,57.10
2019-03-20T10:55:59.271Z,55.50
2019-03-20T10:58:25.444Z,55.70
2019-03-20T11:00:51.679Z,55.60
2019-03-20T11:03:23.873Z,56.30
2019-03-20T11:05:52.887Z,55.40
2019-03-20T11:08:19.076Z,56.20
2019-03-20T11:10:45.155Z,56.80
2019-03-20T11:13:11.316Z,57.20
2019-03-20T11:15:37.395Z,57.70
2019-03-20T11:18:03.659Z,58.10
2019-03-20T11:20:29.799Z,58.30
2019-03-20T11:22:56.367Z,58.80
2019-03-20T11:25:26.735Z,59.30
2019-03-20T11:27:52.832Z,59.50
2019-03-20T11:30:25.957Z,59.60
2019-03-20T11:32:52.363Z,60.20
2019-03-20T11:35:18.558Z,60.30
2019-03-20T11:37:44.728Z,60.00
2019-03-20T11:40:25.657Z,60.20
2019-03-20T11:42:51.960Z,60.20
2019-03-20T11:45:19.217Z,60.60
2019-03-20T11:47:45.299Z,60.20
2019-03-20T11:50:25.963Z,60.60
2019-03-20T11:52:52.124Z,60.70
2019-03-20T11:55:18.191Z,60.90
2019-03-20T11:57:44.481Z,60.60
2019-03-20T12:00:18.671Z,61.10
2019-03-20T12:02:44.920Z,60.80
2019-03-20T12:05:11.163Z,61.10
2019-03-20T12:07:37.331Z,61.30
2019-03-20T12:10:07.193Z,61.70
2019-03-20T12:12:33.259Z,62.10
2019-03-20T12:14:59.359Z,62.50
2019-03-20T12:17:25.411Z,62.60
2019-03-20T12:19:51.529Z,63.10
2019-03-20T12:22:17.688Z,63.70
2019-03-20T12:24:43.768Z,64.00
2019-03-20T12:27:14.984Z,64.20
2019-03-20T12:29:37.908Z,64.50
2019-03-20T12:32:04.125Z,65.10
2019-03-20T12:34:30.291Z,65.60
2019-03-20T12:36:56.712Z,65.60
2019-03-20T12:39:22.971Z,66.80
2019-03-20T12:41:49.223Z,66.40
2019-03-20T12:44:15.276Z,66.50
2019-03-20T12:46:42.024Z,66.90
2019-03-20T12:49:08.299Z,67.20
2019-03-20T12:51:34.371Z,66.90
2019-03-20T12:54:00.430Z,67.00
2019-03-20T12:56:30.103Z,66.90
2019-03-20T12:58:56.322Z,67.40
2019-03-20T13:01:22.377Z,67.10
2019-03-20T13:03:48.676Z,66.90
2019-03-20T13:06:14.836Z,67.00
2019-03-20T13:08:41.784Z,65.80
2019-03-20T13:11:11.071Z,65.60
2019-03-20T13:13:37.244Z,65.80
2019-03-20T13:16:03.363Z,65.40
2019-03-20T13:18:29.437Z,65.40
2019-03-20T13:20:55.495Z,65.80
2019-03-20T13:23:30.753Z,66.70
2019-03-20T13:25:56.825Z,67.00
2019-03-20T13:28:22.969Z,67.80
2019-03-20T13:30:55.815Z,67.70
2019-03-20T13:33:26.040Z,68.70
2019-03-20T13:35:49.877Z,69.10
2019-03-20T13:38:16.051Z,70.50
2019-03-20T13:40:42.116Z,70.10
2019-03-20T13:43:08.175Z,70.50
2019-03-20T13:45:34.434Z,70.10
2019-03-20T13:48:00.484Z,69.60
2019-03-20T13:50:26.563Z,70.00
2019-03-20T13:52:52.608Z,70.10
2019-03-20T13:55:18.872Z,70.80
2019-03-20T13:57:44.959Z,71.10
2019-03-20T14:00:24.528Z,70.90
2019-03-20T14:02:50.984Z,70.90
2019-03-20T14:05:17.047Z,71.10
2019-03-20T14:07:43.212Z,70.90
2019-03-20T14:10:12.007Z,70.80
2019-03-20T14:12:38.068Z,70.30
2019-03-20T14:15:06.428Z,70.50
2019-03-20T14:17:32.499Z,70.80
2019-03-20T14:19:58.566Z,70.80
2019-03-20T14:22:24.743Z,71.30
2019-03-20T14:24:50.803Z,71.50
2019-03-20T14:27:16.890Z,71.90
2019-03-20T14:29:43.043Z,70.80
2019-03-20T14:32:09.115Z,72.50
2019-03-20T14:34:35.179Z,73.10
2019-03-20T14:37:01.254Z,73.40
2019-03-20T14:39:27.307Z,73.70
2019-03-20T14:41:53.503Z,73.70
2019-03-20T14:44:19.580Z,74.40
2019-03-20T14:46:45.637Z,74.90
2019-03-20T14:49:11.791Z,74.90
2019-03-20T14:51:37.855Z,75.30
2019-03-20T14:54:03.941Z,75.60
2019-03-20T14:56:29.997Z,75.80
2019-03-20T14:58:56.040Z,75.90
2019-03-20T15:01:22.134Z,75.80
2019-03-20T15:03:48.866Z,76.20
2019-03-20T15:06:15.072Z,76.50
2019-03-20T15:08:41.132Z,76.90
2019-03-20T15:11:07.183Z,77.00
2019-03-20T15:13:33.249Z,77.10
2019-03-20T15:16:03.149Z,77.10
2019-03-20T15:18:29.215Z,76.70
2019-03-20T15:20:55.269Z,77.40
2019-03-20T15:23:21.438Z,77.60
2019-03-20T15:25:47.543Z,78.10
2019-03-20T15:28:13.599Z,78.40
2019-03-20T15:30:39.655Z,78.80
2019-03-20T15:33:05.799Z,78.90
2019-03-20T15:35:31.908Z,79.10
2019-03-20T15:37:58.055Z,79.50
2019-03-20T15:40:27.568Z,79.40
2019-03-20T15:42:53.816Z,79.60
2019-03-20T15:45:19.863Z,79.80
2019-03-20T15:47:46.264Z,79.90
2019-03-20T15:50:16.378Z,79.80
2019-03-20T15:52:42.424Z,79.80
2019-03-20T15:55:14.187Z,79.90
2019-03-20T15:57:40.347Z,79.60
2019-03-20T16:00:15.118Z,79.60
2019-03-20T16:02:41.346Z,79.40
2019-03-20T16:05:07.696Z,79.40
2019-03-20T16:07:33.764Z,79.40
2019-03-20T16:09:59.992Z,79.30
2019-03-20T16:12:26.194Z,79.40
2019-03-20T16:14:52.732Z,79.30
2019-03-20T16:17:19.289Z,79.40
2019-03-20T16:20:31.992Z,79.70
2019-03-20T16:23:00.086Z,79.70
2019-03-20T16:25:29.340Z,79.60
2019-03-20T16:27:57.532Z,79.80
2019-03-20T16:30:28.251Z,79.90
2019-03-20T16:33:09.680Z,80.10
2019-03-20T16:35:35.728Z,80.30
2019-03-20T16:38:01.890Z,80.50
2019-03-20T16:40:32.908Z,80.60
2019-03-20T16:42:58.972Z,80.70
2019-03-20T16:45:27.275Z,80.70
2019-03-20T16:47:56.977Z,80.90
2019-03-20T16:50:23.190Z,81.00
2019-03-20T16:52:49.316Z,81.10
2019-03-20T16:55:15.467Z,81.50
2019-03-20T16:57:41.592Z,81.70
2019-03-20T17:00:33.254Z,81.90
2019-03-20T17:02:59.582Z,82.20
2019-03-20T17:05:26.235Z,82.60
2019-03-20T17:07:52.416Z,83.00
2019-03-20T17:10:24.266Z,83.70
2019-03-20T17:12:53.711Z,84.00
2019-03-20T17:15:28.661Z,84.40
2019-03-20T17:17:54.874Z,84.90
2019-03-20T17:20:21.253Z,85.50
2019-03-20T17:22:47.426Z,86.50
2019-03-20T17:25:14.176Z,86.00
2019-03-20T17:27:40.480Z,86.20
2019-03-20T17:30:16.331Z,86.40
2019-03-20T17:32:42.387Z,86.50
2019-03-20T17:35:10.201Z,86.90
2019-03-20T17:37:36.328Z,87.10
2019-03-20T17:40:05.419Z,87.10
2019-03-20T17:42:31.685Z,87.30
2019-03-20T17:44:57.931Z,87.60
2019-03-20T17:47:24.130Z,87.50
2019-03-20T17:49:50.976Z,87.90
2019-03-20T17:52:17.185Z,87.90
2019-03-20T17:54:43.230Z,88.10
2019-03-20T17:57:09.292Z,88.20
2019-03-20T17:59:35.347Z,88.50
2019-03-20T18:02:01.404Z,88.80
2019-03-20T18:04:27.492Z,89.10
2019-03-20T18:06:53.575Z,89.20
2019-03-20T18:09:19.639Z,89.60
2019-03-20T18:11:47.659Z,89.90
2019-03-20T18:14:14.089Z,90.10
2019-03-20T18:16:40.155Z,90.20
2019-03-20T18:19:06.285Z,90.20
2019-03-20T18:21:32.410Z,90.70
2019-03-20T18:23:58.505Z,90.40
2019-03-20T18:26:24.575Z,90.40
2019-03-20T18:28:50.659Z,90.40
2019-03-20T18:31:16.804Z,90.60
2019-03-20T18:33:42.863Z,90.80
2019-03-20T18:36:08.928Z,91.10
2019-03-20T18:38:34.988Z,91.10
2019-03-20T18:41:01.073Z,90.80
2019-03-20T18:43:27.156Z,90.60
2019-03-20T18:45:53.223Z,90.30
2019-03-20T18:48:19.299Z,90.30
2019-03-20T18:50:45.368Z,90.20
2019-03-20T18:53:11.452Z,90.20
2019-03-20T18:55:37.557Z,90.30
2019-03-20T18:58:03.620Z,90.40
2019-03-20T19:00:32.482Z,90.40
2019-03-20T19:03:13.888Z,90.50
2019-03-20T19:05:46.680Z,90.50
2019-03-20T19:08:12.949Z,90.50
2019-03-20T19:10:39.130Z,90.60
2019-03-20T19:13:05.426Z,90.70
2019-03-20T19:15:31.579Z,90.70
2019-03-20T19:17:57.738Z,90.70
2019-03-20T19:20:23.802Z,90.70
2019-03-20T19:22:49.843Z,90.70
2019-03-20T19:25:16.577Z,91.10
2019-03-20T19:27:43.011Z,91.20
2019-03-20T19:30:12.871Z,91.40
2019-03-20T19:32:38.958Z,91.40
2019-03-20T19:35:08.042Z,91.50
2019-03-20T19:37:34.195Z,91.60
2019-03-20T19:40:00.322Z,91.70
2019-03-20T19:42:26.432Z,92.00
2019-03-20T19:44:52.494Z,92.10
2019-03-20T19:47:18.652Z,92.20
2019-03-20T19:49:44.743Z,92.30
2019-03-20T19:52:10.803Z,92.40
2019-03-20T19:54:36.867Z,92.50
2019-03-20T19:57:03.116Z,92.60
2019-03-20T19:59:29.184Z,92.60
2019-03-20T20:01:55.240Z,92.60
2019-03-20T20:04:21.295Z,92.70
2019-03-20T20:06:47.347Z,92.60
2019-03-20T20:09:13.509Z,92.60
2019-03-20T20:11:39.727Z,92.60
2019-03-20T20:14:05.794Z,92.60
2019-03-20T20:16:32.016Z,92.60
2019-03-20T20:18:58.206Z,92.60
2019-03-20T20:21:24.362Z,92.10
2019-03-20T20:23:50.514Z,92.10
2019-03-20T20:26:16.600Z,92.10
2019-03-20T20:28:42.744Z,92.10
2019-03-20T20:31:08.795Z,92.00
2019-03-20T20:33:34.899Z,92.00
2019-03-20T20:36:00.964Z,92.00
2019-03-20T20:38:27.046Z,92.00
2019-03-20T20:40:53.115Z,91.90
2019-03-20T20:43:19.166Z,92.00
2019-03-20T20:45:45.223Z,91.90
2019-03-20T20:48:11.289Z,91.90
2019-03-20T20:50:37.358Z,91.80
2019-03-20T20:53:03.524Z,91.70
2019-03-20T20:55:29.594Z,91.70
2019-03-20T20:57:55.751Z,91.60
2019-03-20T21:00:23.039Z,91.70
2019-03-20T21:02:49.082Z,91.70
2019-03-20T21:05:15.267Z,91.70
2019-03-20T21:07:41.428Z,91.60
2019-03-20T21:10:21.802Z,91.70
2019-03-20T21:12:56.258Z,91.60
2019-03-20T21:15:27.543Z,91.60
2019-03-20T21:18:03.020Z,91.60
2019-03-20T21:20:29.080Z,91.60
2019-03-20T21:23:15.795Z,91.50
2019-03-20T21:25:41.852Z,91.50
2019-03-20T21:28:31.288Z,91.50
2019-03-20T21:31:01.165Z,91.40
2019-03-20T21:33:34.076Z,91.30
2019-03-20T21:36:38.106Z,91.30
2019-03-20T21:39:05.559Z,91.30
2019-03-20T21:41:55.294Z,91.20
2019-03-20T21:44:44.664Z,91.20
2019-03-20T21:47:30.780Z,91.20
2019-03-20T21:49:58.142Z,91.10
2019-03-20T21:52:24.224Z,91.10
2019-03-20T21:55:18.096Z,91.10
2019-03-20T21:57:59.792Z,91.10
2019-03-20T22:00:42.124Z,91.10
2019-03-20T22:03:08.200Z,91.10
2019-03-20T22:05:49.939Z,91.10
2019-03-20T22:08:16.076Z,91.00
2019-03-20T22:11:02.709Z,91.10
2019-03-20T22:13:38.725Z,91.00
2019-03-20T22:16:17.483Z,91.00
2019-03-20T22:19:22.606Z,91.30
2019-03-20T22:22:26.679Z,91.00
2019-03-20T22:25:17.622Z,91.00
2019-03-20T22:27:53.446Z,91.00
2019-03-20T22:30:19.496Z,90.90
2019-03-20T22:32:52.340Z,90.90
2019-03-20T22:35:25.091Z,90.90
2019-03-20T22:37:52.278Z,91.00
2019-03-20T22:40:39.353Z,91.00
2019-03-20T22:43:30.097Z,91.10
2019-03-20T22:46:21.982Z,91.00
2019-03-20T22:49:00.596Z,91.00
2019-03-20T22:51:48.608Z,91.10
2019-03-20T22:54:39.550Z,91.10
2019-03-20T22:57:41.523Z,91.10
2019-03-20T23:00:08.571Z,91.00
2019-03-20T23:02:44.475Z,90.90
2019-03-20T23:05:10.531Z,91.00
2019-03-20T23:07:36.596Z,90.90
2019-03-20T23:10:12.104Z,90.90
2019-03-20T23:12:38.174Z,91.00
2019-03-20T23:15:08.040Z,91.00
2019-03-20T23:17:34.112Z,91.00
2019-03-20T23:20:00.493Z,90.90
2019-03-20T23:22:26.633Z,90.90
2019-03-20T23:24:52.712Z,91.00
2019-03-20T23:27:22.475Z,91.00
2019-03-20T23:29:48.571Z,91.00
2019-03-20T23:32:14.621Z,91.00
2019-03-20T23:34:40.713Z,91.10
2019-03-20T23:37:06.763Z,91.10
2019-03-20T23:39:32.923Z,91.10
2019-03-20T23:41:58.988Z,91.20
2019-03-20T23:44:25.156Z,91.20
2019-03-20T23:46:51.811Z,91.20
2019-03-20T23:49:23.605Z,91.30
2019-03-20T23:51:49.663Z,91.30
2019-03-20T23:54:18.711Z,91.20
2019-03-20T23:56:44.780Z,91.30
2019-03-20T23:59:10.835Z,91.30
